Terminal Aerodrome Forecast
Issued by NWS

Home | Current Version | Previous Version | Text Only | Print | Product List | Glossary On
Versions: 1 2 3 4 5 6 7 8 9 10 11 12 13 14 15 16 17 18
000
FTUS43 KJKL 271700 RRA
TAFSME
TAF
KSME 271748Z 2718/2818 23010G18KT 6SM BR VCTS SCT035CB BKN100
      TEMPO 2718/2722 VRB15G30KT 1SM +TSRA BR BKN025CB
     FM272300 27005KT P6SM VCTS SCT040CB
     FM280400 VRB03KT 3SM BR BKN030=

USA.gov is the U.S. government's official web portal to all federal, state and local government web resources and services.